createdAt,value
2022-10-12T00:00:45.610Z,1.95
2022-10-12T00:03:14.672Z,2.40
2022-10-12T00:05:42.462Z,1.80
2022-10-12T00:08:10.267Z,2.10
2022-10-12T00:10:42.048Z,2.15
2022-10-12T00:13:09.976Z,2.10
2022-10-12T00:15:39.196Z,1.80
2022-10-12T00:18:08.642Z,2.20
2022-10-12T00:20:38.040Z,1.60
2022-10-12T00:23:06.192Z,2.15
2022-10-12T00:25:38.157Z,1.60
2022-10-12T00:28:06.618Z,1.85
2022-10-12T00:30:35.161Z,1.77
2022-10-12T00:33:02.939Z,1.73
2022-10-12T00:35:30.735Z,1.90
2022-10-12T00:37:59.836Z,1.92
2022-10-12T00:40:27.855Z,2.10
2022-10-12T00:42:55.644Z,2.00
2022-10-12T00:45:25.907Z,1.98
2022-10-12T00:47:58.390Z,2.22
2022-10-12T00:50:30.519Z,1.83
2022-10-12T00:53:04.769Z,1.83
2022-10-12T00:55:39.173Z,2.10
2022-10-12T00:58:09.226Z,2.08
2022-10-12T01:00:39.361Z,1.67
2022-10-12T01:03:09.591Z,1.88
2022-10-12T01:05:40.260Z,1.83
2022-10-12T01:08:09.605Z,2.60
2022-10-12T01:10:37.428Z,1.95
2022-10-12T01:13:05.455Z,1.75
2022-10-12T01:15:40.537Z,1.85
2022-10-12T01:18:19.163Z,1.80
2022-10-12T01:21:06.059Z,2.30
2022-10-12T01:24:19.701Z,2.30
2022-10-12T01:27:20.258Z,1.92
2022-10-12T01:30:13.190Z,1.88
2022-10-12T01:33:10.222Z,2.10
2022-10-12T01:35:46.849Z,2.28
2022-10-12T01:38:33.258Z,1.85
2022-10-12T01:41:08.153Z,1.67
2022-10-12T01:43:38.828Z,1.73
2022-10-12T01:46:42.779Z,1.60
2022-10-12T01:49:11.736Z,1.88
2022-10-12T01:51:59.475Z,1.73
2022-10-12T01:54:42.071Z,2.10
2022-10-12T01:57:22.762Z,1.90
2022-10-12T02:00:02.458Z,2.03
2022-10-12T02:02:42.152Z,2.22
2022-10-12T02:05:18.353Z,1.80
2022-10-12T02:07:52.596Z,1.65
2022-10-12T02:10:26.953Z,1.95
2022-10-12T02:12:58.870Z,1.73
2022-10-12T02:15:30.671Z,1.80
2022-10-12T02:18:03.612Z,1.75
2022-10-12T02:20:35.084Z,1.80
2022-10-12T02:23:04.107Z,1.98
2022-10-12T02:25:34.734Z,2.30
2022-10-12T02:28:09.173Z,2.65
2022-10-12T02:30:45.873Z,1.63
2022-10-12T02:33:25.706Z,2.05
2022-10-12T02:36:01.500Z,1.63
2022-10-12T02:38:35.738Z,1.90
2022-10-12T02:41:09.722Z,1.90
2022-10-12T02:43:43.968Z,1.90
2022-10-12T02:46:12.685Z,1.73
2022-10-12T02:48:43.863Z,1.83
2022-10-12T02:51:12.642Z,1.75
2022-10-12T02:53:41.502Z,2.28
2022-10-12T02:56:14.076Z,1.80
2022-10-12T02:58:45.694Z,1.83
2022-10-12T03:01:16.884Z,1.77
2022-10-12T03:03:46.973Z,1.90
2022-10-12T03:06:15.104Z,2.10
2022-10-12T03:08:43.120Z,1.67
2022-10-12T03:11:14.378Z,2.38
2022-10-12T03:13:42.162Z,2.30
2022-10-12T03:16:12.674Z,2.03
2022-10-12T03:18:40.890Z,1.98
2022-10-12T03:21:10.941Z,1.90
2022-10-12T03:23:39.246Z,1.87
2022-10-12T03:26:07.887Z,1.65
2022-10-12T03:28:36.618Z,1.75
2022-10-12T03:31:05.846Z,2.03
2022-10-12T03:33:33.621Z,2.38
2022-10-12T03:36:01.363Z,2.15
2022-10-12T03:38:30.463Z,2.03
2022-10-12T03:41:00.792Z,1.70
2022-10-12T03:43:32.019Z,1.70
2022-10-12T03:45:59.775Z,1.83
2022-10-12T03:48:27.608Z,2.00
2022-10-12T03:50:55.352Z,1.98
2022-10-12T03:53:23.093Z,1.60
2022-10-12T03:55:52.178Z,2.10
2022-10-12T03:58:19.957Z,2.10
2022-10-12T04:00:47.841Z,2.00
2022-10-12T04:03:15.562Z,1.80
2022-10-12T04:05:43.431Z,1.90
2022-10-12T04:08:11.415Z,2.10
2022-10-12T04:10:39.161Z,2.05
2022-10-12T04:13:08.248Z,1.83
2022-10-12T04:15:36.054Z,2.15
2022-10-12T04:18:04.016Z,2.00
2022-10-12T04:20:32.120Z,2.10
2022-10-12T04:22:59.858Z,1.85
2022-10-12T04:25:30.146Z,1.98
2022-10-12T04:27:58.368Z,2.20
2022-10-12T04:30:27.518Z,2.15
2022-10-12T04:32:55.229Z,2.10
2022-10-12T04:35:22.985Z,2.17
2022-10-12T04:37:51.118Z,1.83
2022-10-12T04:40:18.873Z,1.50
2022-10-12T04:42:46.605Z,1.70
2022-10-12T04:45:15.049Z,2.08
2022-10-12T04:47:44.160Z,2.03
2022-10-12T04:50:11.928Z,1.80
2022-10-12T04:52:39.764Z,1.58
2022-10-12T04:55:09.308Z,1.60
2022-10-12T04:57:37.310Z,1.83
2022-10-12T05:00:07.129Z,2.10
2022-10-12T05:02:35.223Z,1.63
2022-10-12T05:05:04.545Z,1.85
2022-10-12T05:07:32.278Z,1.90
2022-10-12T05:10:00.202Z,1.90
2022-10-12T05:12:28.127Z,2.20
2022-10-12T05:14:55.855Z,1.80
2022-10-12T05:17:23.645Z,1.65
2022-10-12T05:19:51.388Z,1.55
2022-10-12T05:22:20.461Z,1.90
2022-10-12T05:24:52.871Z,1.90
2022-10-12T05:27:21.566Z,1.90
2022-10-12T05:29:49.333Z,2.10
2022-10-12T05:32:17.138Z,1.77
2022-10-12T05:34:44.904Z,1.50
2022-10-12T05:37:12.792Z,1.80
2022-10-12T05:39:41.888Z,1.95
2022-10-12T05:42:10.364Z,1.55
2022-10-12T05:44:38.483Z,1.77
2022-10-12T05:47:07.688Z,1.70
2022-10-12T05:49:35.485Z,1.95
2022-10-12T05:52:03.482Z,1.90
2022-10-12T05:54:31.260Z,1.52
2022-10-12T05:57:00.462Z,1.50
2022-10-12T05:59:28.247Z,1.58
2022-10-12T06:01:56.072Z,1.98
2022-10-12T06:04:23.898Z,2.08
2022-10-12T06:06:51.611Z,1.83
2022-10-12T06:09:19.487Z,2.20
2022-10-12T06:11:47.557Z,1.65
2022-10-12T06:14:16.876Z,1.60
2022-10-12T06:16:44.728Z,1.60
2022-10-12T06:19:13.055Z,1.65
2022-10-12T06:21:40.836Z,1.60
2022-10-12T06:24:08.903Z,2.40
2022-10-12T06:26:36.657Z,1.85
2022-10-12T06:29:04.764Z,1.70
2022-10-12T06:31:33.978Z,1.80
2022-10-12T06:34:01.822Z,1.42
2022-10-12T06:36:29.604Z,1.88
2022-10-12T06:38:57.411Z,1.70
2022-10-12T06:41:26.460Z,1.88
2022-10-12T06:43:54.331Z,1.85
2022-10-12T06:46:22.112Z,1.75
2022-10-12T06:48:51.250Z,1.70
2022-10-12T06:51:19.215Z,1.92
2022-10-12T06:53:47.074Z,1.88
2022-10-12T06:56:15.451Z,1.60
2022-10-12T06:58:43.174Z,2.00
2022-10-12T07:01:11.484Z,2.55
2022-10-12T07:03:39.420Z,1.80
2022-10-12T07:06:13.314Z,1.42
2022-10-12T07:08:42.852Z,1.90
2022-10-12T07:11:15.073Z,1.88
2022-10-12T07:13:43.111Z,1.60
2022-10-12T07:16:11.032Z,1.42
2022-10-12T07:18:40.120Z,2.08
2022-10-12T07:21:09.860Z,1.83
2022-10-12T07:23:43.647Z,1.42
2022-10-12T07:26:14.277Z,2.13
2022-10-12T07:28:42.358Z,1.70
2022-10-12T07:31:10.684Z,1.80
2022-10-12T07:33:39.577Z,1.58
2022-10-12T07:36:15.643Z,1.90
2022-10-12T07:38:48.657Z,2.10
2022-10-12T07:41:17.408Z,1.60
2022-10-12T07:43:45.356Z,1.73
2022-10-12T07:46:13.494Z,1.70
2022-10-12T07:48:45.637Z,1.63
2022-10-12T07:51:18.782Z,1.70
2022-10-12T07:53:46.704Z,2.35
2022-10-12T07:56:18.394Z,1.65
2022-10-12T07:58:50.908Z,1.55
2022-10-12T08:01:20.978Z,1.80
2022-10-12T08:03:49.496Z,1.70
2022-10-12T08:06:21.419Z,1.40
2022-10-12T08:08:50.088Z,1.50
2022-10-12T08:11:19.607Z,1.85
2022-10-12T08:13:48.229Z,1.98
2022-10-12T08:16:19.384Z,1.30
2022-10-12T08:18:47.469Z,1.63
2022-10-12T08:21:19.065Z,2.13
2022-10-12T08:23:47.526Z,1.85
2022-10-12T08:26:16.886Z,1.98
2022-10-12T08:28:45.282Z,1.67
2022-10-12T08:31:16.408Z,1.50
2022-10-12T08:33:44.340Z,1.45
2022-10-12T08:36:13.506Z,2.10
2022-10-12T08:38:43.650Z,1.58
2022-10-12T08:41:29.916Z,1.70
2022-10-12T08:44:32.446Z,2.17
2022-10-12T08:47:10.665Z,1.25
2022-10-12T08:49:40.380Z,1.30
2022-10-12T08:52:28.513Z,1.77
2022-10-12T08:55:05.226Z,1.52
2022-10-12T08:57:34.647Z,1.30
2022-10-12T09:00:02.695Z,1.58
2022-10-12T09:02:53.310Z,1.70
2022-10-12T09:05:32.767Z,1.70
2022-10-12T09:08:07.791Z,1.50
2022-10-12T09:10:48.092Z,1.52
2022-10-12T09:13:35.671Z,1.40
2022-10-12T09:16:07.625Z,1.40
2022-10-12T09:18:41.837Z,1.80
2022-10-12T09:21:17.759Z,1.40
2022-10-12T09:23:46.555Z,1.52
2022-10-12T09:26:20.135Z,1.40
2022-10-12T09:28:54.694Z,1.40
2022-10-12T09:31:42.928Z,1.38
2022-10-12T09:34:15.478Z,1.42
2022-10-12T09:36:46.445Z,1.70
2022-10-12T09:39:19.767Z,1.67
2022-10-12T09:41:50.461Z,1.60
2022-10-12T09:44:32.457Z,1.40
2022-10-12T09:47:02.686Z,1.85
2022-10-12T09:49:44.493Z,1.60
2022-10-12T09:52:16.230Z,1.75
2022-10-12T09:54:49.779Z,1.60
2022-10-12T09:57:24.412Z,1.88
2022-10-12T09:59:53.247Z,1.30
2022-10-12T10:02:24.325Z,1.38
2022-10-12T10:04:53.980Z,1.95
2022-10-12T10:07:30.302Z,1.42
2022-10-12T10:10:26.677Z,1.33
2022-10-12T10:13:02.932Z,1.70
2022-10-12T10:15:34.749Z,1.70
2022-10-12T10:18:08.126Z,1.50
2022-10-12T10:20:44.961Z,1.50
2022-10-12T10:23:26.709Z,1.70
2022-10-12T10:25:58.806Z,1.35
2022-10-12T10:28:31.700Z,1.70
2022-10-12T10:31:03.892Z,1.48
2022-10-12T10:33:34.898Z,1.75
2022-10-12T10:36:09.905Z,1.75
2022-10-12T10:38:56.887Z,1.50
2022-10-12T10:41:29.446Z,1.80
2022-10-12T10:43:59.038Z,1.52
2022-10-12T10:46:32.859Z,1.63
2022-10-12T10:49:06.901Z,1.73
2022-10-12T10:51:45.413Z,1.90
2022-10-12T10:54:27.661Z,1.73
2022-10-12T10:57:02.089Z,1.67
2022-10-12T10:59:43.230Z,1.88
2022-10-12T11:02:24.734Z,1.83
2022-10-12T11:05:00.873Z,1.88
2022-10-12T11:07:37.076Z,1.85
2022-10-12T11:10:18.566Z,1.90
2022-10-12T11:12:51.680Z,1.80
2022-10-12T11:15:29.274Z,1.90
2022-10-12T11:18:12.280Z,1.60
2022-10-12T11:20:52.832Z,1.80
2022-10-12T11:23:31.049Z,1.75
2022-10-12T11:26:19.187Z,2.15
2022-10-12T11:28:47.591Z,2.00
2022-10-12T11:31:23.753Z,1.70
2022-10-12T11:33:55.092Z,1.70
2022-10-12T11:36:27.109Z,2.20
2022-10-12T11:39:06.697Z,2.00
2022-10-12T11:42:03.274Z,1.70
2022-10-12T11:44:42.892Z,1.70
2022-10-12T11:47:24.402Z,1.98
2022-10-12T11:50:00.787Z,2.10
2022-10-12T11:52:40.268Z,1.65
2022-10-12T11:55:34.404Z,2.25
2022-10-12T11:58:13.452Z,2.15
2022-10-12T12:01:04.416Z,2.33
2022-10-12T12:04:40.099Z,1.73
2022-10-12T12:07:04.372Z,1.75
2022-10-12T12:09:47.779Z,1.98
2022-10-12T12:12:24.391Z,2.50
2022-10-12T12:15:22.572Z,2.50
2022-10-12T12:18:14.280Z,1.83
2022-10-12T12:21:05.715Z,2.13
2022-10-12T12:23:41.434Z,2.35
2022-10-12T12:26:18.136Z,2.08
2022-10-12T12:28:48.850Z,2.33
2022-10-12T12:34:12.007Z,1.83
2022-10-12T12:36:45.561Z,2.45
2022-10-12T12:39:25.782Z,2.00
2022-10-12T12:42:01.716Z,2.00
2022-10-12T12:44:41.480Z,1.77
2022-10-12T12:47:46.701Z,2.05
2022-10-12T12:50:42.261Z,1.80
2022-10-12T12:53:22.974Z,2.03
2022-10-12T12:56:05.946Z,2.28
2022-10-12T12:59:08.517Z,1.98
2022-10-12T13:02:02.916Z,2.25
2022-10-12T13:05:27.042Z,1.75
2022-10-12T13:08:15.392Z,1.98
2022-10-12T13:11:17.572Z,2.30
2022-10-12T13:14:02.287Z,2.15
2022-10-12T13:17:31.300Z,1.65
2022-10-12T13:19:46.063Z,1.88
2022-10-12T13:22:27.017Z,2.13
2022-10-12T13:27:38.094Z,1.88
2022-10-12T13:30:16.806Z,2.20
2022-10-12T13:32:54.495Z,2.22
2022-10-12T13:35:34.967Z,1.85
2022-10-12T13:38:05.944Z,2.17
2022-10-12T13:40:39.843Z,2.00
2022-10-12T13:43:34.404Z,2.08
2022-10-12T13:46:02.557Z,1.90
2022-10-12T13:48:58.049Z,2.17
2022-10-12T13:51:25.507Z,2.28
2022-10-12T13:53:53.533Z,2.38
2022-10-12T13:56:27.077Z,2.67
2022-10-12T13:59:03.162Z,1.80
2022-10-12T14:01:33.442Z,2.25
2022-10-12T14:04:06.289Z,2.05
2022-10-12T14:06:38.256Z,2.00
2022-10-12T14:09:11.503Z,1.85
2022-10-12T14:11:42.030Z,1.98
2022-10-12T14:14:25.300Z,1.55
2022-10-12T14:16:53.402Z,2.22
2022-10-12T14:19:33.823Z,2.13
2022-10-12T14:22:03.637Z,2.05
2022-10-12T14:24:32.114Z,2.55
2022-10-12T14:27:04.867Z,2.22
2022-10-12T14:29:43.681Z,2.45
2022-10-12T14:32:42.133Z,2.13
2022-10-12T14:35:23.145Z,2.20
2022-10-12T14:37:53.277Z,2.70
2022-10-12T14:40:32.474Z,2.03
2022-10-12T14:43:07.787Z,2.35
2022-10-12T14:45:36.920Z,2.30
2022-10-12T14:48:07.109Z,2.20
2022-10-12T14:50:34.943Z,2.70
2022-10-12T14:53:08.531Z,1.85
2022-10-12T14:55:36.395Z,2.30
2022-10-12T14:58:08.153Z,2.70
2022-10-12T15:00:38.490Z,2.60
2022-10-12T15:03:06.491Z,2.15
2022-10-12T15:05:35.263Z,2.15
2022-10-12T15:08:07.582Z,2.42
2022-10-12T15:10:36.913Z,2.17
2022-10-12T15:13:06.185Z,2.60
2022-10-12T15:15:40.390Z,2.30
2022-10-12T15:18:08.177Z,2.50
2022-10-12T15:20:36.889Z,2.67
2022-10-12T15:23:05.365Z,2.22
2022-10-12T15:25:43.037Z,2.38
2022-10-12T15:28:12.167Z,2.45
2022-10-12T15:30:57.998Z,2.42
2022-10-12T15:33:27.823Z,2.50
2022-10-12T15:35:55.631Z,2.17
2022-10-12T15:38:24.214Z,2.25
2022-10-12T15:40:53.383Z,2.33
2022-10-12T15:43:22.496Z,2.13
2022-10-12T15:45:50.724Z,2.30
2022-10-12T15:48:18.746Z,2.40
2022-10-12T15:50:49.969Z,2.45
2022-10-12T15:53:20.547Z,2.60
2022-10-12T15:55:48.657Z,2.75
2022-10-12T15:58:16.646Z,2.25
2022-10-12T16:00:45.998Z,2.50
2022-10-12T16:03:19.192Z,2.25
2022-10-12T16:05:50.599Z,2.80
2022-10-12T16:08:18.347Z,2.10
2022-10-12T16:10:47.758Z,2.72
2022-10-12T16:13:17.271Z,2.15
2022-10-12T16:15:46.381Z,2.50
2022-10-12T16:18:15.421Z,2.67
2022-10-12T16:20:46.638Z,2.05
2022-10-12T16:23:23.946Z,2.55
2022-10-12T16:25:52.268Z,2.70
2022-10-12T16:28:20.567Z,2.42
2022-10-12T16:30:50.276Z,2.55
2022-10-12T16:33:18.673Z,2.90
2022-10-12T16:35:46.903Z,2.58
2022-10-12T16:38:15.862Z,2.42
2022-10-12T16:40:43.910Z,2.53
2022-10-12T16:43:12.475Z,2.42
2022-10-12T16:45:40.234Z,2.90
2022-10-12T16:48:09.454Z,2.70
2022-10-12T16:50:40.826Z,2.95
2022-10-12T16:53:09.489Z,3.30
2022-10-12T16:55:39.895Z,3.33
2022-10-12T16:58:07.735Z,3.38
2022-10-12T17:00:35.631Z,3.42
2022-10-12T17:03:03.509Z,3.25
2022-10-12T17:05:32.585Z,4.00
2022-10-12T17:08:00.511Z,3.80
2022-10-12T17:10:28.707Z,3.28
2022-10-12T17:12:56.455Z,2.97
2022-10-12T17:15:24.216Z,6.10
2022-10-12T17:17:53.972Z,4.07
2022-10-12T17:20:21.766Z,3.10
2022-10-12T17:22:50.855Z,3.33
2022-10-12T17:25:18.828Z,3.53
2022-10-12T17:27:46.548Z,3.47
2022-10-12T17:30:14.501Z,3.80
2022-10-12T17:32:42.218Z,3.65
2022-10-12T17:35:10.843Z,3.63
2022-10-12T17:37:38.597Z,3.63
2022-10-12T17:40:10.615Z,3.80
2022-10-12T17:42:38.409Z,3.92
2022-10-12T17:45:07.611Z,4.10
2022-10-12T17:47:35.432Z,3.45
2022-10-12T17:50:03.201Z,3.83
2022-10-12T17:52:30.916Z,3.78
2022-10-12T17:54:58.672Z,3.33
2022-10-12T17:57:27.772Z,4.03
2022-10-12T17:59:55.489Z,3.42
2022-10-12T18:02:23.215Z,3.95
2022-10-12T18:04:50.964Z,3.35
2022-10-12T18:07:19.104Z,3.65
2022-10-12T18:09:47.226Z,3.47
2022-10-12T18:12:15.463Z,4.07
2022-10-12T18:14:44.914Z,3.60
2022-10-12T18:17:12.653Z,3.50
2022-10-12T18:19:40.516Z,3.85
2022-10-12T18:22:08.290Z,3.50
2022-10-12T18:24:36.083Z,3.45
2022-10-12T18:27:03.938Z,3.75
2022-10-12T18:29:31.742Z,3.78
2022-10-12T18:32:02.239Z,3.40
2022-10-12T18:34:34.271Z,3.88
2022-10-12T18:37:04.151Z,3.33
2022-10-12T18:39:32.138Z,3.95
2022-10-12T18:41:59.988Z,3.15
2022-10-12T18:44:27.948Z,3.38
2022-10-12T18:46:55.778Z,3.63
2022-10-12T18:49:24.904Z,3.40
2022-10-12T18:51:52.978Z,4.20
2022-10-12T18:54:20.910Z,3.45
2022-10-12T18:56:48.631Z,3.38
2022-10-12T18:59:17.976Z,3.40
2022-10-12T19:01:46.822Z,9.38
2022-10-12T19:04:14.770Z,18.08
2022-10-12T19:06:44.399Z,16.83
2022-10-12T19:09:14.557Z,12.98
2022-10-12T19:11:42.621Z,11.10
2022-10-12T19:14:15.723Z,9.95
2022-10-12T19:16:44.770Z,10.40
2022-10-12T19:19:20.543Z,10.45
2022-10-12T19:21:51.539Z,10.10
2022-10-12T19:24:19.913Z,10.70
2022-10-12T19:26:48.876Z,11.40
2022-10-12T19:29:17.021Z,10.77
2022-10-12T19:31:47.637Z,10.35
2022-10-12T19:34:18.070Z,9.85
2022-10-12T19:36:46.804Z,9.60
2022-10-12T19:39:18.964Z,10.57
2022-10-12T19:41:47.569Z,10.38
2022-10-12T19:44:16.042Z,9.75
2022-10-12T19:46:47.836Z,9.98
2022-10-12T19:49:18.070Z,10.30
2022-10-12T19:51:54.644Z,9.70
2022-10-12T19:54:35.938Z,9.98
2022-10-12T19:57:04.443Z,9.52
2022-10-12T19:59:32.341Z,9.95
2022-10-12T20:02:00.128Z,9.32
2022-10-12T20:04:28.201Z,10.07
2022-10-12T20:06:55.940Z,9.38
2022-10-12T20:09:25.081Z,9.75
2022-10-12T20:11:52.922Z,10.48
2022-10-12T20:14:20.728Z,8.90
2022-10-12T20:16:48.496Z,9.77
2022-10-12T20:19:16.251Z,10.68
2022-10-12T20:21:44.026Z,9.43
2022-10-12T20:24:12.119Z,9.30
2022-10-12T20:26:41.273Z,9.18
2022-10-12T20:29:09.188Z,9.07
2022-10-12T20:31:36.939Z,9.18
2022-10-12T20:34:04.865Z,9.73
2022-10-12T20:36:32.956Z,10.25
2022-10-12T20:39:01.557Z,9.00
2022-10-12T20:41:29.438Z,9.90
2022-10-12T20:44:00.977Z,9.18
2022-10-12T20:46:30.300Z,9.40
2022-10-12T20:48:59.711Z,9.65
2022-10-12T20:51:30.207Z,9.18
2022-10-12T20:53:59.229Z,9.50
2022-10-12T20:56:27.659Z,9.55
2022-10-12T20:58:55.919Z,9.32
2022-10-12T21:01:26.378Z,9.35
2022-10-12T21:03:54.826Z,9.65
2022-10-12T21:06:23.629Z,8.85
2022-10-12T21:08:53.311Z,9.48
2022-10-12T21:11:22.183Z,9.20
2022-10-12T21:13:50.611Z,9.27
2022-10-12T21:16:18.851Z,9.60
2022-10-12T21:18:48.261Z,8.45
2022-10-12T21:21:18.440Z,8.93
2022-10-12T21:23:52.980Z,9.50
2022-10-12T21:26:22.572Z,9.40
2022-10-12T21:28:50.917Z,9.20
2022-10-12T21:31:19.603Z,9.02
2022-10-12T21:33:48.867Z,8.88
2022-10-12T21:36:20.393Z,9.43
2022-10-12T21:38:48.918Z,8.82
2022-10-12T21:41:18.486Z,9.20
2022-10-12T21:43:48.326Z,9.60
2022-10-12T21:46:19.376Z,8.25
2022-10-12T21:48:49.479Z,8.23
2022-10-12T21:51:18.131Z,9.20
2022-10-12T21:53:46.382Z,8.65
2022-10-12T21:56:18.771Z,9.50
2022-10-12T21:58:48.205Z,8.48
2022-10-12T22:01:19.065Z,8.80
2022-10-12T22:06:20.694Z,7.15
2022-10-12T22:08:52.785Z,6.97
2022-10-12T22:11:20.658Z,8.52
2022-10-12T22:13:49.040Z,8.25
2022-10-12T22:16:19.818Z,8.35
2022-10-12T22:18:49.011Z,7.68
2022-10-12T22:21:19.142Z,8.20
2022-10-12T22:23:47.394Z,9.15
2022-10-12T22:26:17.875Z,7.95
2022-10-12T22:28:47.376Z,7.75
2022-10-12T22:31:19.023Z,8.13
2022-10-12T22:33:48.551Z,8.73
2022-10-12T22:36:16.738Z,8.15
2022-10-12T22:38:45.510Z,8.13
2022-10-12T22:41:15.954Z,8.77
2022-10-12T22:43:43.810Z,9.65
2022-10-12T22:46:11.746Z,7.97
2022-10-12T22:48:40.197Z,8.40
2022-10-12T22:51:10.389Z,9.05
2022-10-12T22:53:38.218Z,8.13
2022-10-12T22:56:12.443Z,8.68
2022-10-12T22:58:40.297Z,7.68
2022-10-12T23:01:11.437Z,8.35
2022-10-12T23:03:40.123Z,7.93
2022-10-12T23:06:11.260Z,7.38
2022-10-12T23:08:39.182Z,8.10
2022-10-12T23:11:10.666Z,7.28
2022-10-12T23:13:40.823Z,8.02
2022-10-12T23:16:12.060Z,7.47
2022-10-12T23:18:40.297Z,8.52
2022-10-12T23:21:13.436Z,8.32
2022-10-12T23:23:42.419Z,8.35
2022-10-12T23:26:14.956Z,7.40
2022-10-12T23:28:43.050Z,7.65
2022-10-12T23:31:13.410Z,6.88
2022-10-12T23:33:41.617Z,8.27
2022-10-12T23:36:14.064Z,8.05
2022-10-12T23:38:43.658Z,7.53
2022-10-12T23:41:12.737Z,7.85
2022-10-12T23:43:41.011Z,6.88
2022-10-12T23:46:09.071Z,7.65
2022-10-12T23:48:36.886Z,7.30
2022-10-12T23:51:07.363Z,8.35
2022-10-12T23:53:37.742Z,7.45
2022-10-12T23:56:06.919Z,7.53
2022-10-12T23:58:34.990Z,7.90
